Pennsburg, PA (18073)

4:19 AM EDT on March 27, 2015 (GMT -0400)
Milford Township | | Change Station
CLOSE
Current Station
Personal Weather Station
Location: Quakertown, PA
Elevation: 544 ft
Nearby Weather Stations

Elev 544 ft 40.42 °N, 75.44 °W | Updated 4 minutes ago

Rain
Rain
38.4 °F
Feels Like 38 °F
N
3.0
Wind Variable Wind from NW
Gusts 10.0 mph

Today
High -- | Low -- °F
--% Chance of Precip.
Yesterday
High -- | Low -- °F
Precip. -- in
6:54 AM 7:21 PM
Waxing Crescent, 50% visible
Pressure 29.77 in
Visibility 8.0 miles
Clouds Mostly Cloudy 2300 ft
Overcast 2900 ft
Windchill 38 °F
Dew Point 34 °F
Humidity 85%
Rainfall 0.14 in
Snow Depth Not available.
UV 0 out of 12
Pollen 6.50 out of 12
Air Quality Not available.
Flu Activity Not available.
METAR KUKT 270815Z AUTO 35007KT 8SM BKN023 OVC029 04/03 A2977 RMK AO1 P0001

More Conditions Fewer Conditions

Pressure 29.77 in
Visibility 8.0 miles
Clouds Mostly Cloudy 2300 ft
Overcast 2900 ft
Windchill 38 °F
Dew Point 34 °F
Humidity 85%
Rainfall 0.14 in
Snow Depth Not available.
UV 0 out of 12
Pollen 6.50 out of 12
Air Quality Not available.
Flu Activity Not available.
METAR KUKT 270815Z AUTO 35007KT 8SM BKN023 OVC029 04/03 A2977 RMK AO1 P0001

More Conditions Fewer Conditions

Nowcast | as of 4:14 am EDT on March 27, 2015

Between now and 600 am, light rain will continue to fall in northeastern Maryland, northern Delaware, souheastern Pennsylvania and southwestern New Jersey. Additional rainfall is expected to be a few hundredths of an inch.

×

10-Day Weather Forecast

Almanac

Astronomy

Mar. 27, 2015 Rise Set
Actual Time
Civil Twilight
Nautical Twilight
Astronomical Twilight
Moon
Length of Visible Light
Length of Day
Tomorrow will be .
, % of the Moon is Illuminated

Today's Extremes

State Highs State Lows

Community

WunderPhotos

Upload Photos

1,808,705 photos uploaded!

WunderBlogs® & News

Nearby

Air Quality

  Air Quality AQ Index Pollutant
Not available.

Snow Depth

Station Depth Elevation

Earthquake Activity

City Distance Mag. Time & Date
Minimum magnitude displayed is 2.5.

Coastal Water Temperatures

Place Temperature

Stations

Nearby Weather Stations

Station Location Temp. Windchill Dew Point Humidity Wind Precip. Elev Updated Type